Time;durP1;ratioP1;P1;durP2;ratioP2;P2;SDS_P1;SDS_P2;PMS_P1;PMS_P2;Temp;Humidity;BMP_temperature;BMP_pressure;BME280_temperature;BME280_humidity;BME280_pressure;Samples;Min_cycle;Max_cycle;Signal;HPM_P1;HPM_P2
2023/09/20 00:01:14;;;;;;;7.93;2.00;;;18.70;99.90;;;;;;5073814;28;20044;-33
2023/09/20 00:03:40;;;;;;;10.80;2.42;;;18.70;99.90;;;;;;5073585;28;20021;-35
2023/09/20 00:06:07;;;;;;;4.90;1.90;;;18.70;99.90;;;;;;5073434;28;20016;-33
2023/09/20 00:08:35;;;;;;;4.25;1.85;;;18.70;99.90;;;;;;5073446;28;20074;-35
2023/09/20 00:11:01;;;;;;;6.97;1.60;;;18.60;99.90;;;;;;5073619;28;20028;-36
2023/09/20 00:13:27;;;;;;;5.97;1.63;;;18.60;99.90;;;;;;5072067;28;20020;-35
2023/09/20 00:15:55;;;;;;;7.03;1.38;;;18.60;99.90;;;;;;5073481;28;20020;-35
2023/09/20 00:18:23;;;;;;;7.97;2.00;;;18.60;99.90;;;;;;5073232;28;20107;-35
2023/09/20 00:20:49;;;;;;;6.18;1.63;;;18.60;99.90;;;;;;5073396;28;20488;-35
2023/09/20 00:23:20;;;;;;;3.97;1.80;;;18.70;99.90;;;;;;5073193;28;20021;-34
2023/09/20 00:25:49;;;;;;;9.02;1.98;;;18.60;99.90;;;;;;5073344;28;20016;-34
2023/09/20 00:28:17;;;;;;;3.95;1.75;;;18.60;99.90;;;;;;5073119;28;20021;-34
2023/09/20 00:30:45;;;;;;;9.02;1.88;;;18.50;99.90;;;;;;5073122;28;20017;-35
2023/09/20 00:33:11;;;;;;;8.85;2.00;;;18.60;99.90;;;;;;5073415;28;20079;-34
2023/09/20 00:35:39;;;;;;;7.80;1.92;;;18.50;99.90;;;;;;5073049;28;20073;-35
2023/09/20 00:38:05;;;;;;;6.53;1.85;;;18.50;99.90;;;;;;5073076;28;20473;-34
2023/09/20 00:40:32;;;;;;;10.85;2.45;;;18.50;99.90;;;;;;5073224;28;20453;-35
2023/09/20 00:42:58;;;;;;;5.65;1.63;;;18.50;99.90;;;;;;5073209;28;20021;-36
2023/09/20 00:45:24;;;;;;;6.63;1.52;;;18.50;99.90;;;;;;5072957;28;20079;-34
2023/09/20 00:47:56;;;;;;;10.05;1.77;;;18.50;99.90;;;;;;5072654;28;20505;-34
2023/09/20 00:50:26;;;;;;;9.13;2.00;;;18.50;99.90;;;;;;5073200;28;20477;-34
2023/09/20 00:52:54;;;;;;;6.28;1.95;;;18.40;99.90;;;;;;5071657;28;20028;-35
2023/09/20 00:55:24;;;;;;;14.57;2.35;;;18.40;99.90;;;;;;5073076;28;20024;-35
2023/09/20 00:58:07;;;;;;;6.07;1.77;;;18.40;99.90;;;;;;5071492;28;20048;-34
2023/09/20 01:00:40;;;;;;;7.72;2.08;;;18.40;99.90;;;;;;5072750;28;20020;-34
2023/09/20 01:03:06;;;;;;;14.90;2.17;;;18.30;99.90;;;;;;5072503;28;20019;-35
2023/09/20 01:05:36;;;;;;;9.80;2.00;;;18.30;99.90;;;;;;5071812;28;20028;-35
2023/09/20 01:08:03;;;;;;;5.82;1.60;;;18.20;99.90;;;;;;5072508;28;20017;-34
2023/09/20 01:10:31;;;;;;;6.40;1.95;;;18.20;99.90;;;;;;5072963;28;20025;-35
2023/09/20 01:12:58;;;;;;;7.40;2.60;;;18.20;99.90;;;;;;5072643;28;20021;-35
2023/09/20 01:15:24;;;;;;;;;;;18.20;99.90;;;;;;5072916;28;20102;-35
2023/09/20 01:17:58;;;;;;;5.97;2.08;;;18.10;99.90;;;;;;5072589;28;19911;-35
2023/09/20 01:20:30;;;;;;;5.40;1.52;;;18.20;99.90;;;;;;5072534;28;20094;-36
2023/09/20 01:22:58;;;;;;;7.45;2.78;;;18.20;99.90;;;;;;5072831;28;20032;-35
2023/09/20 01:25:25;;;;;;;13.13;2.55;;;18.20;99.90;;;;;;5072750;28;20028;-36
2023/09/20 01:27:56;;;;;;;7.00;2.10;;;18.10;99.90;;;;;;5072534;28;20021;-35
2023/09/20 01:30:27;;;;;;;11.02;2.47;;;18.10;99.90;;;;;;5071621;28;20029;-35
2023/09/20 01:32:57;;;;;;;7.30;2.10;;;18.20;99.90;;;;;;5076393;28;20024;-35
2023/09/20 01:35:24;;;;;;;11.00;1.80;;;18.10;99.90;;;;;;5076465;28;20027;-35
2023/09/20 01:37:51;;;;;;;7.63;1.80;;;18.10;99.90;;;;;;5076405;28;20085;-34
2023/09/20 01:40:18;;;;;;;6.55;1.52;;;18.10;99.90;;;;;;5076483;28;20016;-36
2023/09/20 01:42:48;;;;;;;4.50;2.38;;;18.10;99.90;;;;;;5076160;28;20025;-34
2023/09/20 01:45:14;;;;;;;3.40;1.70;;;18.00;99.90;;;;;;5076247;28;20012;-35
2023/09/20 01:47:44;;;;;;;4.45;1.98;;;18.00;99.90;;;;;;5074730;28;20374;-34
2023/09/20 01:50:19;;;;;;;6.47;2.08;;;18.00;99.90;;;;;;5076170;28;20026;-35
2023/09/20 01:52:49;;;;;;;4.70;2.28;;;18.00;99.90;;;;;;5076378;28;20082;-35
2023/09/20 01:55:17;;;;;;;7.70;1.67;;;18.00;99.90;;;;;;5076021;28;20429;-34
2023/09/20 01:57:46;;;;;;;7.32;2.97;;;18.00;99.90;;;;;;5074629;28;20555;-35
2023/09/20 02:00:22;;;;;;;3.65;2.08;;;18.00;99.90;;;;;;5076114;28;20056;-35
2023/09/20 02:02:55;;;;;;;9.73;2.47;;;18.00;99.90;;;;;;5075827;28;20100;-34
2023/09/20 02:05:23;;;;;;;12.95;2.72;;;18.00;99.90;;;;;;5076065;28;20016;-35
2023/09/20 02:07:51;;;;;;;4.32;1.75;;;18.10;99.90;;;;;;5075787;28;20024;-35
2023/09/20 02:10:17;;;;;;;6.25;2.47;;;18.10;99.90;;;;;;5075666;28;20016;-36
2023/09/20 02:12:53;;;;;;;5.07;2.05;;;18.20;99.90;;;;;;5075675;28;20478;-35
2023/09/20 02:15:20;;;;;;;8.63;2.25;;;18.10;99.90;;;;;;5075584;28;20504;-35
2023/09/20 02:17:46;;;;;;;7.32;1.77;;;18.10;99.90;;;;;;5075677;28;20028;-35
2023/09/20 02:20:19;;;;;;;4.05;1.60;;;18.10;99.90;;;;;;5075482;28;20025;-34
2023/09/20 02:22:48;;;;;;;6.10;1.80;;;18.20;99.90;;;;;;5075845;28;20472;-35
2023/09/20 02:25:20;;;;;;;5.20;1.80;;;18.20;99.90;;;;;;5075699;28;20056;-34
2023/09/20 02:27:49;;;;;;;3.90;1.83;;;18.20;99.90;;;;;;5075378;28;20020;-35
2023/09/20 02:30:16;;;;;;;5.15;1.50;;;18.20;99.90;;;;;;5075348;28;20032;-35
2023/09/20 02:32:42;;;;;;;;;;;18.20;99.90;;;;;;5076023;28;20031;-35
2023/09/20 02:35:08;;;;;;;9.35;2.42;;;18.20;99.90;;;;;;5075564;28;20361;-35
2023/09/20 02:37:35;;;;;;;4.38;1.65;;;18.20;99.90;;;;;;5075247;28;20115;-35
2023/09/20 02:40:07;;;;;;;6.78;1.80;;;18.20;99.90;;;;;;5075178;28;20492;-35
2023/09/20 02:42:40;;;;;;;3.05;1.55;;;18.10;99.90;;;;;;5074287;28;20012;-34
2023/09/20 02:45:07;;;;;;;6.70;1.90;;;18.10;99.90;;;;;;5075412;28;20036;-34
2023/09/20 02:47:32;;;;;;;8.68;2.83;;;18.20;99.90;;;;;;5074861;28;20428;-36
2023/09/20 02:49:58;;;;;;;3.55;1.48;;;18.10;99.90;;;;;;5075074;28;20029;-35
2023/09/20 02:52:24;;;;;;;4.85;2.30;;;18.10;99.90;;;;;;5075017;28;20533;-34
2023/09/20 02:54:51;;;;;;;4.38;1.55;;;18.00;99.90;;;;;;5075211;28;20473;-35
2023/09/20 02:57:17;;;;;;;8.32;1.98;;;18.10;99.90;;;;;;5075135;28;20017;-35
2023/09/20 02:59:43;;;;;;;10.27;2.15;;;18.10;99.90;;;;;;5073745;28;20483;-35
2023/09/20 03:02:10;;;;;;;6.45;1.67;;;18.00;99.90;;;;;;5075093;28;20158;-35
2023/09/20 03:04:37;;;;;;;6.45;2.10;;;18.10;99.90;;;;;;5074744;28;20065;-35
2023/09/20 03:07:04;;;;;;;4.10;1.63;;;18.00;99.90;;;;;;5075062;28;20048;-36
2023/09/20 03:09:35;;;;;;;2.65;1.65;;;18.00;99.90;;;;;;5056155;28;20504;-35
2023/09/20 03:12:05;;;;;;;9.80;2.30;;;18.00;99.90;;;;;;5074622;28;20024;-35
2023/09/20 03:14:31;;;;;;;4.13;2.00;;;17.90;99.90;;;;;;5074473;28;20158;-34
2023/09/20 03:16:57;;;;;;;4.13;2.00;;;17.90;99.90;;;;;;5074517;28;20056;-36
2023/09/20 03:19:23;;;;;;;2.55;1.48;;;17.90;99.90;;;;;;5074469;28;20479;-36
2023/09/20 03:21:50;;;;;;;9.30;1.75;;;17.90;99.90;;;;;;5074635;28;20493;-34
2023/09/20 03:24:15;;;;;;;8.55;1.45;;;17.90;99.90;;;;;;5073063;28;20494;-34
2023/09/20 03:26:42;;;;;;;5.90;1.42;;;17.80;99.90;;;;;;5074319;28;20095;-35
2023/09/20 03:29:08;;;;;;;7.75;2.42;;;17.90;99.90;;;;;;5074553;28;20032;-35
2023/09/20 03:31:34;;;;;;;3.72;1.60;;;17.90;99.90;;;;;;5074569;28;20017;-35
2023/09/20 03:34:00;;;;;;;2.63;1.42;;;17.90;99.90;;;;;;5074389;28;20055;-35
2023/09/20 03:36:26;;;;;;;7.22;2.05;;;17.80;99.90;;;;;;5074343;28;20028;-34
2023/09/20 03:38:55;;;;;;;8.02;1.67;;;17.80;99.90;;;;;;5074092;28;20032;-34
2023/09/20 03:41:20;;;;;;;6.40;2.33;;;17.90;99.90;;;;;;5073842;28;20031;-35
2023/09/20 03:43:47;;;;;;;4.72;1.50;;;17.80;99.90;;;;;;5073911;28;20103;-35
2023/09/20 03:46:13;;;;;;;4.90;1.63;;;17.80;99.90;;;;;;5074134;28;20040;-35
2023/09/20 03:48:39;;;;;;;6.43;1.48;;;17.80;99.90;;;;;;5073696;28;20106;-34
2023/09/20 03:51:05;;;;;;;4.53;1.50;;;17.80;99.90;;;;;;5073787;28;20024;-35
2023/09/20 03:53:34;;;;;;;7.65;1.65;;;17.90;99.90;;;;;;5073729;28;20028;-35
2023/09/20 03:55:59;;;;;;;7.20;2.10;;;17.90;99.90;;;;;;5074028;28;20385;-34
2023/09/20 03:58:25;;;;;;;10.18;2.03;;;17.90;99.90;;;;;;5073685;28;20016;-34
2023/09/20 04:00:51;;;;;;;5.80;1.98;;;17.80;99.90;;;;;;5073791;28;20033;-37
2023/09/20 04:03:17;;;;;;;7.25;2.00;;;17.80;99.90;;;;;;5073829;28;20025;-35
2023/09/20 04:05:43;;;;;;;6.72;2.33;;;17.80;99.90;;;;;;5073752;28;20406;-34
2023/09/20 04:08:08;;;;;;;5.93;1.90;;;17.80;99.90;;;;;;5073750;28;20012;-35
2023/09/20 04:10:35;;;;;;;5.88;2.28;;;17.80;99.90;;;;;;5073683;28;20412;-35
2023/09/20 04:13:01;;;;;;;3.55;1.15;;;17.80;99.90;;;;;;5073411;28;20550;-35
2023/09/20 04:15:29;;;;;;;2.90;1.73;;;17.80;99.90;;;;;;5073541;28;20021;-36
2023/09/20 04:17:54;;;;;;;;;;;17.90;99.90;;;;;;5074082;28;20048;-35
2023/09/20 04:20:20;;;;;;;5.20;1.60;;;17.90;99.90;;;;;;5073215;28;19955;-36
2023/09/20 04:22:47;;;;;;;3.25;1.25;;;17.90;99.90;;;;;;5073502;28;20025;-36
2023/09/20 04:25:13;;;;;;;4.15;1.23;;;17.80;99.90;;;;;;5073194;28;20092;-38
2023/09/20 04:27:38;;;;;;;8.80;1.63;;;17.90;99.90;;;;;;5073390;28;20115;-36
2023/09/20 04:30:07;;;;;;;4.80;1.27;;;17.90;99.90;;;;;;5073135;28;20540;-37
2023/09/20 04:32:33;;;;;;;7.85;1.63;;;17.90;99.90;;;;;;5073373;28;20029;-37
2023/09/20 04:34:59;;;;;;;6.85;2.38;;;17.90;99.90;;;;;;5073068;28;20377;-37
2023/09/20 04:37:44;;;;;;;8.25;1.98;;;17.90;99.90;;;;;;5072996;28;20032;-35
2023/09/20 04:40:10;;;;;;;2.17;1.55;;;17.90;99.90;;;;;;5073259;28;20481;-37
2023/09/20 04:42:37;;;;;;;5.95;1.55;;;17.90;99.90;;;;;;5073223;28;20354;-36
2023/09/20 04:45:07;;;;;;;6.32;1.45;;;17.90;99.90;;;;;;5072939;28;20025;-36
2023/09/20 04:47:35;;;;;;;9.52;2.17;;;17.90;99.90;;;;;;5072591;28;20111;-35
2023/09/20 04:50:02;;;;;;;5.13;1.90;;;17.90;99.90;;;;;;5072902;28;20244;-36
2023/09/20 04:52:28;;;;;;;3.53;1.55;;;17.90;99.90;;;;;;5072939;28;20032;-36
2023/09/20 04:54:54;;;;;;;5.38;1.48;;;17.90;99.90;;;;;;5071899;28;20477;-36
2023/09/20 04:57:20;;;;;;;6.43;1.90;;;17.80;99.90;;;;;;5072861;28;20105;-36
2023/09/20 04:59:46;;;;;;;3.53;1.92;;;17.90;99.90;;;;;;5072652;28;20100;-36
2023/09/20 05:02:14;;;;;;;4.03;1.55;;;17.90;99.90;;;;;;5072771;28;20139;-35
2023/09/20 05:04:40;;;;;;;6.03;1.77;;;17.90;99.90;;;;;;5072595;28;20497;-37
2023/09/20 05:07:06;;;;;;;4.10;1.77;;;17.80;99.90;;;;;;5072507;28;20020;-38
2023/09/20 05:09:36;;;;;;;3.13;1.67;;;17.80;99.90;;;;;;5072743;28;20020;-37
2023/09/20 05:12:02;;;;;;;5.63;1.70;;;17.80;99.90;;;;;;5072721;28;20098;-36
2023/09/20 05:14:29;;;;;;;6.93;1.90;;;17.80;99.90;;;;;;5072892;28;20476;-36
2023/09/20 05:16:54;;;;;;;4.97;1.90;;;17.70;99.90;;;;;;5072620;28;20029;-40
2023/09/20 05:19:22;;;;;;;2.50;1.30;;;17.80;99.90;;;;;;5072595;28;20384;-36
2023/09/20 05:21:48;;;;;;;5.60;2.08;;;17.70;99.90;;;;;;5072833;28;20029;-51
2023/09/20 05:24:14;;;;;;;6.00;1.52;;;17.70;99.90;;;;;;5072515;28;20082;-52
2023/09/20 05:26:39;;;;;;;5.55;1.83;;;17.70;99.90;;;;;;5072516;28;20398;-48
2023/09/20 05:29:05;;;;;;;3.67;1.35;;;17.70;99.90;;;;;;5072534;28;20025;-54
2023/09/20 05:31:32;;;;;;;7.15;1.45;;;17.70;99.90;;;;;;5072750;28;20477;-53
2023/09/20 05:33:58;;;;;;;3.05;1.52;;;17.70;99.90;;;;;;5072795;28;20024;-51
2023/09/20 05:36:24;;;;;;;3.55;1.85;;;17.70;99.90;;;;;;5072588;28;20119;-53
2023/09/20 05:38:49;;;;;;;4.57;1.40;;;17.60;99.90;;;;;;5072710;28;20035;-51
2023/09/20 05:41:17;;;;;;;4.93;1.67;;;17.70;99.90;;;;;;5072332;28;20032;-49
2023/09/20 05:43:43;;;;;;;5.75;1.58;;;17.70;99.90;;;;;;5072718;28;20021;-53
2023/09/20 05:46:09;;;;;;;3.60;1.90;;;17.70;99.90;;;;;;5071160;28;20079;-49
2023/09/20 05:48:35;;;;;;;1.73;1.25;;;17.70;99.90;;;;;;5072122;28;20520;-51
2023/09/20 05:51:02;;;;;;;6.18;2.35;;;17.60;99.90;;;;;;5072295;28;20033;-52
2023/09/20 05:53:28;;;;;;;10.80;1.80;;;17.60;99.90;;;;;;5072563;28;20055;-50
2023/09/20 05:55:54;;;;;;;6.55;2.20;;;17.70;99.90;;;;;;5070971;28;20028;-50
2023/09/20 05:58:19;;;;;;;8.40;1.73;;;17.60;99.90;;;;;;5072508;28;20033;-49
2023/09/20 06:00:45;;;;;;;4.25;2.55;;;17.60;99.90;;;;;;5072138;28;20090;-48
2023/09/20 06:03:12;;;;;;;6.55;2.03;;;17.70;99.90;;;;;;5072149;28;20064;-52
2023/09/20 06:05:38;;;;;;;5.18;2.03;;;17.70;99.90;;;;;;5072221;28;20107;-51
2023/09/20 06:08:06;;;;;;;7.13;1.90;;;17.70;99.90;;;;;;5072183;28;20119;-52
2023/09/20 06:10:32;;;;;;;6.05;2.80;;;17.70;99.90;;;;;;5072459;28;20492;-52
2023/09/20 06:12:57;;;;;;;7.13;1.67;;;17.70;99.90;;;;;;5072054;28;20036;-54
2023/09/20 06:15:23;;;;;;;4.70;1.60;;;17.70;99.90;;;;;;5072246;28;20524;-49
2023/09/20 06:17:49;;;;;;;8.02;1.85;;;17.70;99.90;;;;;;5074538;28;20107;-51
2023/09/20 06:20:24;;;;;;;3.60;1.60;;;17.70;99.90;;;;;;5075539;28;20491;-52
2023/09/20 06:22:51;;;;;;;6.07;2.25;;;17.70;99.90;;;;;;5075539;28;20025;-53
2023/09/20 06:25:19;;;;;;;9.68;1.98;;;17.70;99.90;;;;;;5074043;28;20393;-51
2023/09/20 06:27:45;;;;;;;6.93;1.45;;;17.70;99.90;;;;;;5075430;28;20059;-50
2023/09/20 06:30:13;;;;;;;5.68;1.95;;;17.70;99.90;;;;;;5075424;28;20037;-49
2023/09/20 06:32:43;;;;;;;7.22;2.30;;;17.70;99.90;;;;;;5075311;28;20033;-54
2023/09/20 06:35:09;;;;;;;11.57;2.50;;;17.80;99.90;;;;;;5075211;28;20032;-51
2023/09/20 06:37:35;;;;;;;3.05;1.52;;;17.80;99.90;;;;;;5075566;28;20028;-52
2023/09/20 06:40:03;;;;;;;3.83;1.73;;;17.80;99.90;;;;;;5056990;28;20032;-53
2023/09/20 06:42:30;;;;;;;3.45;1.65;;;17.80;99.90;;;;;;5075048;28;20032;-52
2023/09/20 06:44:58;;;;;;;5.68;1.88;;;17.80;99.90;;;;;;5075017;28;20103;-52
2023/09/20 06:47:24;;;;;;;9.23;1.90;;;17.80;99.90;;;;;;5074908;28;20028;-53
2023/09/20 06:49:50;;;;;;;4.90;1.70;;;17.90;99.90;;;;;;5074764;28;20041;-50
2023/09/20 06:52:17;;;;;;;6.13;2.33;;;17.90;99.90;;;;;;5074816;28;20529;-49
2023/09/20 06:54:45;;;;;;;5.63;1.58;;;18.00;99.90;;;;;;5074970;28;20100;-52
2023/09/20 06:57:17;;;;;;;4.40;2.35;;;18.00;99.90;;;;;;5074919;28;20062;-53
2023/09/20 06:59:45;;;;;;;3.63;1.63;;;18.00;99.90;;;;;;5075117;28;20095;-50
2023/09/20 07:02:13;;;;;;;6.15;1.70;;;18.10;99.90;;;;;;5075127;28;20032;-52
2023/09/20 07:04:39;;;;;;;8.07;2.05;;;18.10;99.90;;;;;;5074853;28;20031;-55
2023/09/20 07:07:07;;;;;;;8.10;2.00;;;18.10;99.90;;;;;;5074735;28;20021;-36
2023/09/20 07:09:34;;;;;;;3.78;1.85;;;18.10;99.90;;;;;;5074675;28;20087;-36
2023/09/20 07:12:03;;;;;;;4.05;2.10;;;18.10;99.90;;;;;;5074887;28;20389;-52
2023/09/20 07:14:31;;;;;;;7.30;1.70;;;18.10;99.90;;;;;;5073280;28;20029;-52
2023/09/20 07:16:57;;;;;;;5.80;1.70;;;18.10;99.90;;;;;;5073295;28;20032;-49
2023/09/20 07:19:35;;;;;;;4.88;1.90;;;18.20;99.90;;;;;;5074458;28;20090;-51
2023/09/20 07:22:03;;;;;;;2.92;1.52;;;18.20;99.90;;;;;;5074590;28;20052;-48
2023/09/20 07:24:31;;;;;;;3.25;3.05;;;18.30;99.90;;;;;;5074205;28;20021;-53
2023/09/20 07:26:58;;;;;;;2.90;1.80;;;18.30;99.90;;;;;;5074271;28;20031;-52
2023/09/20 07:29:25;;;;;;;4.13;1.90;;;18.30;99.90;;;;;;5073543;28;20033;-51
2023/09/20 07:31:51;;;;;;;5.95;2.28;;;18.30;99.90;;;;;;5074038;28;20032;-47
2023/09/20 07:34:19;;;;;;;6.82;2.17;;;18.30;99.90;;;;;;5074150;28;20048;-48
2023/09/20 07:36:49;;;;;;;13.30;2.13;;;18.30;99.90;;;;;;5073979;28;20028;-52
2023/09/20 07:39:17;;;;;;;15.35;3.35;;;18.40;99.90;;;;;;5073984;28;20109;-50
2023/09/20 07:41:46;;;;;;;5.38;2.33;;;18.30;99.90;;;;;;5073828;28;20052;-51
2023/09/20 07:44:13;;;;;;;2.75;2.08;;;18.40;99.90;;;;;;5074195;28;20028;-52
2023/09/20 07:46:40;;;;;;;5.93;2.42;;;18.40;99.90;;;;;;5074202;28;20024;-53
2023/09/20 07:49:09;;;;;;;;;;;18.40;99.90;;;;;;5074068;28;20047;-49
2023/09/20 07:51:39;;;;;;;7.28;2.22;;;18.30;99.90;;;;;;5072464;28;20376;-51
2023/09/20 07:54:10;;;;;;;3.90;2.30;;;18.30;99.90;;;;;;5073757;28;20507;-47
2023/09/20 07:56:40;;;;;;;5.40;2.00;;;18.40;99.90;;;;;;5073699;28;20081;-53
2023/09/20 07:59:05;;;;;;;2.67;2.15;;;18.30;99.90;;;;;;5073692;28;20551;-51
2023/09/20 08:01:32;;;;;;;6.53;2.20;;;18.30;99.90;;;;;;5073652;28;20028;-51
2023/09/20 08:03:58;;;;;;;7.63;1.98;;;18.30;99.90;;;;;;5073855;28;20020;-50
2023/09/20 08:06:27;;;;;;;5.80;2.17;;;18.30;99.90;;;;;;5073455;28;20028;-53
2023/09/20 08:08:54;;;;;;;5.82;2.13;;;18.30;99.90;;;;;;5073746;28;20039;-53
2023/09/20 08:11:20;;;;;;;1.70;1.60;;;18.30;99.90;;;;;;5073538;28;20070;-51
2023/09/20 08:13:46;;;;;;;4.45;1.88;;;18.30;99.90;;;;;;5073466;28;20419;-51
2023/09/20 08:16:12;;;;;;;2.92;2.10;;;18.40;99.90;;;;;;5073332;28;20381;-52
2023/09/20 08:21:27;;;;;;;6.03;2.30;;;18.40;99.90;;;;;;5073217;28;20142;-54
2023/09/20 08:59:56;;;;;;;4.28;2.28;;;18.60;99.90;;;;;;5072584;28;20078;-52
2023/09/20 09:02:22;;;;;;;9.70;2.58;;;18.60;99.90;;;;;;5071612;28;20059;-50
2023/09/20 09:04:53;;;;;;;3.95;2.30;;;18.50;99.90;;;;;;5072990;28;20040;-53
2023/09/20 09:07:20;;;;;;;4.85;2.67;;;18.60;99.90;;;;;;5072998;28;20021;-52
2023/09/20 09:09:46;;;;;;;4.80;2.83;;;18.50;99.90;;;;;;5072896;28;20358;-51
2023/09/20 09:12:12;;;;;;;8.50;2.60;;;18.50;99.90;;;;;;5072730;28;20050;-53
2023/09/20 09:14:39;;;;;;;3.03;2.63;;;18.50;99.90;;;;;;5072624;28;20545;-50
2023/09/20 09:17:06;;;;;;;5.30;2.70;;;18.50;99.90;;;;;;5072331;28;20481;-35
2023/09/20 09:19:33;;;;;;;3.67;2.17;;;18.50;99.90;;;;;;5072442;28;20299;-36
2023/09/20 09:21:59;;;;;;;5.68;2.35;;;18.50;99.90;;;;;;5072382;28;20029;-36
2023/09/20 09:24:27;;;;;;;7.38;2.53;;;18.50;99.90;;;;;;5072431;28;20056;-35
2023/09/20 09:27:06;;;;;;;7.60;2.20;;;18.60;99.90;;;;;;5072542;28;20418;-35
2023/09/20 09:29:32;;;;;;;2.47;1.85;;;18.60;99.90;;;;;;5072462;28;20055;-35
2023/09/20 09:32:00;;;;;;;9.07;3.55;;;18.50;99.90;;;;;;5072460;28;20051;-36
2023/09/20 09:34:26;;;;;;;3.50;1.80;;;18.50;99.90;;;;;;5072437;28;20027;-35
2023/09/20 09:36:53;;;;;;;6.57;2.38;;;18.50;99.90;;;;;;5072406;28;20107;-35
2023/09/20 09:39:19;;;;;;;10.70;3.95;;;18.50;99.90;;;;;;5071228;28;20032;-35
2023/09/20 09:41:46;;;;;;;7.50;2.80;;;18.50;99.90;;;;;;5072600;28;20032;-36
2023/09/20 09:44:13;;;;;;;3.20;2.57;;;18.50;99.90;;;;;;5072283;28;20092;-37
2023/09/20 09:46:40;;;;;;;3.38;1.90;;;18.60;99.90;;;;;;5072219;28;20070;-35
2023/09/20 09:49:12;;;;;;;5.40;1.73;;;18.60;99.90;;;;;;5072145;28;20044;-35
2023/09/20 09:51:45;;;;;;;3.65;2.10;;;18.60;99.90;;;;;;5073023;28;20020;-35
2023/09/20 09:54:13;;;;;;;2.10;1.90;;;18.60;99.90;;;;;;5074942;28;20108;-35
2023/09/20 09:56:40;;;;;;;4.38;1.80;;;18.60;99.90;;;;;;5075963;28;20020;-35
2023/09/20 09:59:06;;;;;;;4.15;2.03;;;18.60;99.90;;;;;;5076058;28;20536;-35
2023/09/20 10:01:39;;;;;;;4.25;1.98;;;18.60;99.90;;;;;;5076091;28;20477;-36
2023/09/20 10:04:10;;;;;;;4.05;1.73;;;18.60;99.90;;;;;;5075857;28;20066;-35
2023/09/20 10:06:46;;;;;;;6.95;3.28;;;18.70;99.90;;;;;;5075796;28;20052;-35
2023/09/20 10:09:17;;;;;;;12.07;2.00;;;18.70;99.90;;;;;;5075815;28;20028;-36
2023/09/20 10:11:43;;;;;;;3.15;1.98;;;18.70;99.90;;;;;;5076041;28;20528;-38
2023/09/20 10:14:10;;;;;;;3.03;2.03;;;18.70;99.90;;;;;;5075665;28;20058;-35
2023/09/20 10:16:44;;;;;;;3.13;1.98;;;18.80;99.90;;;;;;5075644;28;20029;-35
2023/09/20 10:19:13;;;;;;;3.03;2.03;;;18.90;99.90;;;;;;5075739;28;20148;-36
2023/09/20 10:21:40;;;;;;;3.25;2.10;;;18.90;99.90;;;;;;5074237;28;20032;-36
2023/09/20 10:24:07;;;;;;;5.35;1.90;;;19.00;99.90;;;;;;5075504;28;20024;-36
2023/09/20 10:26:35;;;;;;;6.45;2.30;;;19.00;99.90;;;;;;5074154;28;20480;-35
2023/09/20 10:29:24;;;;;;;3.08;2.20;;;18.90;99.90;;;;;;5075457;28;20074;-34
2023/09/20 10:31:52;;;;;;;6.78;2.08;;;18.90;99.90;;;;;;5075378;28;20482;-36
2023/09/20 10:34:21;;;;;;;3.45;2.08;;;19.00;99.90;;;;;;5075345;28;20481;-35
2023/09/20 10:36:53;;;;;;;5.85;1.95;;;19.00;99.90;;;;;;5075221;28;20048;-35
2023/09/20 10:39:18;;;;;;;4.13;2.10;;;19.10;99.90;;;;;;5075298;28;20070;-35
2023/09/20 10:41:46;;;;;;;6.20;2.65;;;19.10;99.90;;;;;;5075154;28;20473;-35
2023/09/20 10:44:28;;;;;;;;;;;19.20;99.90;;;;;;5075819;28;20103;-36
2023/09/20 10:46:58;;;;;;;4.53;1.85;;;19.20;99.90;;;;;;5073893;28;20446;-35
2023/09/20 10:49:49;;;;;;;9.90;2.35;;;19.30;99.90;;;;;;5074569;28;20044;-35
2023/09/20 10:52:33;;;;;;;2.40;2.03;;;19.30;99.90;;;;;;5075070;28;20420;-36
2023/09/20 10:55:22;;;;;;;7.10;1.90;;;19.40;99.90;;;;;;5074894;28;20028;-35
2023/09/20 10:57:49;;;;;;;3.45;1.98;;;19.40;99.90;;;;;;5073653;28;20040;-35
2023/09/20 11:00:25;;;;;;;4.45;2.20;;;19.50;99.90;;;;;;5074717;28;20052;-35
2023/09/20 11:02:53;;;;;;;5.15;2.00;;;19.60;99.90;;;;;;5074275;28;20354;-35
2023/09/20 11:05:38;;;;;;;5.15;1.98;;;19.90;99.90;;;;;;5074419;28;20032;-36
2023/09/20 11:08:10;;;;;;;3.25;2.00;;;20.20;99.90;;;;;;5074784;28;20028;-37
2023/09/20 11:10:43;;;;;;;4.28;1.80;;;20.50;99.90;;;;;;5073360;28;20045;-34
2023/09/20 11:13:14;;;;;;;4.15;1.65;;;20.60;99.90;;;;;;5074936;28;20155;-35
2023/09/20 11:15:41;;;;;;;4.32;1.60;;;20.50;99.90;;;;;;5074790;28;20074;-34
2023/09/20 11:18:08;;;;;;;5.10;2.22;;;20.50;99.90;;;;;;5074498;28;20473;-35
2023/09/20 11:20:34;;;;;;;2.60;1.55;;;20.50;99.90;;;;;;5074590;28;20028;-36
2023/09/20 11:23:02;;;;;;;1.70;1.60;;;20.50;99.90;;;;;;5074898;28;20126;-35
2023/09/20 11:25:30;;;;;;;3.08;2.53;;;20.50;99.90;;;;;;5074266;28;20021;-35
2023/09/20 11:27:59;;;;;;;3.00;2.10;;;20.50;99.90;;;;;;5074274;28;20021;-35
2023/09/20 11:30:29;;;;;;;3.30;1.30;;;20.60;99.90;;;;;;5074512;28;20028;-34
2023/09/20 11:32:55;;;;;;;3.15;1.63;;;20.60;99.90;;;;;;5074575;28;20030;-34
2023/09/20 11:35:38;;;;;;;4.22;1.92;;;20.70;99.90;;;;;;5074198;28;20503;-35
2023/09/20 11:38:10;;;;;;;4.38;1.55;;;20.80;99.90;;;;;;5074341;28;20082;-35
2023/09/20 11:40:37;;;;;;;6.78;1.63;;;20.90;99.90;;;;;;5074310;28;20035;-35
2023/09/20 11:43:14;;;;;;;3.67;1.70;;;21.00;99.90;;;;;;5074044;28;20029;-35
2023/09/20 11:45:41;;;;;;;6.43;2.15;;;21.00;99.90;;;;;;5074314;28;20051;-35
2023/09/20 11:48:15;;;;;;;12.68;2.80;;;21.20;99.90;;;;;;5073950;28;20036;-35
2023/09/20 11:50:46;;;;;;;2.80;1.83;;;21.30;99.90;;;;;;5073774;28;20047;-36
2023/09/20 11:53:16;;;;;;;2.85;2.13;;;21.30;99.90;;;;;;5073809;28;20546;-37
2023/09/20 11:55:42;;;;;;;2.70;2.38;;;21.40;99.90;;;;;;5073799;28;20028;-36
2023/09/20 11:58:09;;;;;;;7.18;2.42;;;21.50;99.90;;;;;;5073731;28;20086;-35
2023/09/20 12:00:35;;;;;;;3.75;1.77;;;21.60;99.90;;;;;;5073567;28;20115;-35
2023/09/20 12:03:02;;;;;;;6.10;2.13;;;21.60;99.90;;;;;;5073625;28;20437;-35
2023/09/20 12:05:28;;;;;;;5.55;1.88;;;21.70;99.90;;;;;;5073842;28;20427;-36
2023/09/20 12:07:58;;;;;;;5.88;2.92;;;21.80;99.90;;;;;;5072257;28;20024;-35
2023/09/20 12:10:45;;;;;;;5.38;2.75;;;21.90;99.90;;;;;;5073371;28;20054;-36
2023/09/20 12:13:11;;;;;;;6.30;1.70;;;21.80;99.90;;;;;;5073418;28;20036;-34
2023/09/20 12:15:38;;;;;;;9.05;2.03;;;21.70;99.90;;;;;;5073125;28;20389;-36
2023/09/20 12:18:04;;;;;;;;;;;21.80;99.90;;;;;;5073713;28;20039;-35
2023/09/20 12:20:29;;;;;;;4.18;1.67;;;21.80;99.90;;;;;;5073186;28;19912;-34
2023/09/20 12:23:00;;;;;;;3.33;1.75;;;21.90;99.90;;;;;;5073181;28;20078;-35
2023/09/20 12:25:26;;;;;;;3.58;1.90;;;21.90;99.90;;;;;;5073114;28;20073;-36
2023/09/20 12:27:52;;;;;;;2.47;1.95;;;22.00;99.90;;;;;;5073090;28;20119;-36
2023/09/20 12:30:17;;;;;;;2.95;1.75;;;22.10;99.90;;;;;;5071798;28;20028;-37
2023/09/20 12:32:43;;;;;;;3.80;1.90;;;22.10;99.90;;;;;;5073075;28;20397;-36
2023/09/20 12:35:13;;;;;;;7.85;2.00;;;22.00;99.90;;;;;;5073062;28;20370;-34
2023/09/20 12:37:39;;;;;;;7.28;2.03;;;22.00;99.90;;;;;;5073025;28;20106;-38
2023/09/20 12:40:08;;;;;;;10.15;1.92;;;22.00;99.90;;;;;;5073206;28;20032;-35
2023/09/20 12:42:38;;;;;;;5.03;1.70;;;22.10;99.90;;;;;;5072970;28;20032;-36
2023/09/20 12:45:10;;;;;;;3.92;1.95;;;22.20;99.90;;;;;;5073193;28;20028;-35
2023/09/20 12:47:36;;;;;;;2.72;2.15;;;22.30;99.90;;;;;;5073190;28;20477;-35
2023/09/20 12:50:03;;;;;;;3.03;1.90;;;22.50;99.90;;;;;;5072889;28;20479;-35
2023/09/20 12:52:29;;;;;;;2.97;1.83;;;22.60;99.90;;;;;;5073134;28;20055;-35
2023/09/20 12:54:55;;;;;;;2.90;1.85;;;22.60;99.90;;;;;;5072762;28;20021;-35
2023/09/20 12:57:24;;;;;;;3.60;1.77;;;22.60;99.90;;;;;;5072774;28;20024;-36
2023/09/20 12:59:52;;;;;;;2.88;1.52;;;22.70;99.90;;;;;;5071429;28;20029;-36
2023/09/20 13:02:18;;;;;;;3.00;1.80;;;22.70;99.90;;;;;;5072994;28;20102;-35
2023/09/20 13:04:46;;;;;;;4.40;2.30;;;22.80;99.90;;;;;;5072595;28;20025;-34
2023/09/20 13:07:12;;;;;;;5.82;2.20;;;22.80;99.90;;;;;;5072922;28;20024;-36
2023/09/20 13:09:38;;;;;;;5.40;2.17;;;22.60;99.90;;;;;;5072885;28;20469;-36
2023/09/20 13:12:05;;;;;;;2.25;2.05;;;22.50;99.90;;;;;;5072883;28;20025;-37
2023/09/20 13:14:31;;;;;;;3.25;1.98;;;22.50;99.90;;;;;;5071257;28;20493;-36
2023/09/20 13:16:57;;;;;;;1.88;1.70;;;22.40;99.90;;;;;;5072868;28;20028;-37
2023/09/20 13:19:22;;;;;;;4.90;2.47;;;22.40;99.90;;;;;;5072567;28;20056;-35
2023/09/20 13:21:48;;;;;;;2.80;1.50;;;22.40;99.90;;;;;;5072429;28;20029;-36
2023/09/20 13:24:15;;;;;;;5.15;2.63;;;22.50;99.90;;;;;;5071095;28;20430;-36
2023/09/20 13:26:41;;;;;;;4.47;3.05;;;22.50;99.90;;;;;;5073520;28;20056;-35
2023/09/20 13:29:07;;;;;;;6.70;2.33;;;22.50;99.90;;;;;;5076844;28;20060;-37
2023/09/20 13:31:35;;;;;;;3.45;2.03;;;22.50;99.90;;;;;;5076547;28;20039;-35